Time;durP1;ratioP1;P1;durP2;ratioP2;P2;SDS_P1;SDS_P2;PMS_P1;PMS_P2;Temp;Humidity;BMP_temperature;BMP_pressure;BME280_temperature;BME280_humidity;BME280_pressure;Samples;Min_cycle;Max_cycle;Signal;HPM_P1;HPM_P2
2022/02/07 00:00:20;;;;;;;71.32;47.75;;;;;;;;;;5112818;28;20074;-79
2022/02/07 00:05:21;;;;;;;70.60;45.40;;;;;;;;;;5102760;28;20090;-79
2022/02/07 00:07:47;;;;;;;61.17;38.15;;;;;;;;;;5098865;28;20020;-79
2022/02/07 00:10:13;;;;;;;37.25;25.52;;;;;;;;;;5099164;28;20028;-79
2022/02/07 00:12:45;;;;;;;29.15;20.55;;;;;;;;;;5092327;28;20081;-80
2022/02/07 00:15:12;;;;;;;32.25;23.50;;;;;;;;;;5092338;28;20023;-78
2022/02/07 00:17:38;;;;;;;50.90;27.90;;;;;;;;;;5092114;28;20493;-80
2022/02/07 00:20:09;;;;;;;42.13;26.52;;;;;;;;;;5092184;28;20025;-78
2022/02/07 00:38:22;;;;;;;67.57;38.17;;;;;;;;;;5092222;28;20094;-79
2022/02/07 00:43:34;;;;;;;74.68;44.28;;;;;;;;;;5091997;28;20028;-81
2022/02/07 00:46:10;;;;;;;61.47;35.03;;;;;;;;;;5074614;28;20028;-78
2022/02/07 00:48:36;;;;;;;47.20;32.05;;;;;;;;;;5096245;28;20131;-79
2022/02/07 00:51:02;;;;;;;57.00;34.83;;;;;;;;;;5081039;28;20040;-81
2022/02/07 00:53:31;;;;;;;49.08;30.80;;;;;;;;;;5075435;28;20029;-78
2022/02/07 00:55:57;;;;;;;47.40;30.40;;;;;;;;;;5075592;28;20025;-78
2022/02/07 00:58:23;;;;;;;52.35;33.85;;;;;;;;;;5075258;28;20048;-81
2022/02/07 01:00:52;;;;;;;190.65;107.20;;;;;;;;;;5075444;28;20033;-80
2022/02/07 01:03:18;;;;;;;53.47;33.80;;;;;;;;;;5057264;28;20025;-80
2022/02/07 01:05:44;;;;;;;40.35;24.90;;;;;;;;;;5075267;28;20032;-78
2022/02/07 01:08:11;;;;;;;36.60;23.13;;;;;;;;;;5075098;28;20082;-80
2022/02/07 01:10:58;;;;;;;37.50;23.73;;;;;;;;;;5075344;28;20027;-80
2022/02/07 01:16:02;;;;;;;115.50;60.97;;;;;;;;;;5075145;28;20033;-80
2022/02/07 01:55:58;;;;;;;37.05;25.15;;;;;;;;;;5074836;28;20050;-76
2022/02/07 01:58:24;;;;;;;48.22;29.55;;;;;;;;;;5073535;28;20029;-77
2022/02/07 02:00:51;;;;;;;45.45;29.63;;;;;;;;;;5074328;28;20479;-80
2022/02/07 02:03:17;;;;;;;45.45;31.77;;;;;;;;;;5063174;28;20020;-84
2022/02/07 02:05:43;;;;;;;35.60;24.13;;;;;;;;;;5083609;28;20115;-77
2022/02/07 02:08:11;;;;;;;29.77;21.15;;;;;;;;;;5064554;28;20119;-82
2022/02/07 02:10:47;;;;;;;31.60;21.38;;;;;;;;;;5082796;28;20016;-80
2022/02/07 02:13:21;;;;;;;33.05;21.77;;;;;;;;;;5082331;28;20059;-82
2022/02/07 02:15:55;;;;;;;30.77;21.20;;;;;;;;;;5083031;28;20427;-82
2022/02/07 02:45:42;;;;;;;28.25;19.05;;;;;;;;;;5080577;28;20106;-78
2022/02/07 02:48:19;;;;;;;31.63;21.63;;;;;;;;;;5082259;28;20406;-79
2022/02/07 02:50:48;;;;;;;28.88;20.75;;;;;;;;;;5089378;28;20048;-80
2022/02/07 02:53:15;;;;;;;45.95;30.02;;;;;;;;;;5093618;28;20048;-81
2022/02/07 02:55:43;;;;;;;37.67;24.80;;;;;;;;;;5093311;28;20024;-80
2022/02/07 02:58:10;;;;;;;35.83;23.58;;;;;;;;;;5093506;28;20020;-77
2022/02/07 03:00:37;;;;;;;30.42;20.42;;;;;;;;;;5100991;28;21167;-79
2022/02/07 03:03:03;;;;;;;32.53;22.58;;;;;;;;;;5099492;28;20027;-84
2022/02/07 03:05:30;;;;;;;32.72;20.77;;;;;;;;;;5102490;28;20026;-81
2022/02/07 03:07:56;;;;;;;27.35;18.98;;;;;;;;;;5103950;28;20028;-82
2022/02/07 03:10:40;;;;;;;28.27;20.08;;;;;;;;;;5101125;28;20024;-79
2022/02/07 03:13:13;;;;;;;31.23;20.13;;;;;;;;;;5109900;28;20059;-82
2022/02/07 03:18:25;;;;;;;28.23;19.65;;;;;;;;;;5101484;28;20154;-81
2022/02/07 03:20:51;;;;;;;26.85;18.55;;;;;;;;;;5083258;28;20049;-80
2022/02/07 03:23:17;;;;;;;30.02;20.95;;;;;;;;;;5101168;28;20019;-77
2022/02/07 03:25:44;;;;;;;27.98;20.80;;;;;;;;;;5102769;28;20015;-79
2022/02/07 03:28:10;;;;;;;29.58;20.40;;;;;;;;;;5101924;28;20033;-81
2022/02/07 03:30:37;;;;;;;26.52;19.15;;;;;;;;;;5102423;28;20125;-84
2022/02/07 03:33:04;;;;;;;27.42;19.20;;;;;;;;;;5103574;28;20481;-80
2022/02/07 03:35:30;;;;;;;28.98;19.67;;;;;;;;;;5082760;28;20024;-83
2022/02/07 03:37:56;;;;;;;28.20;20.00;;;;;;;;;;5101113;28;20115;-79
2022/02/07 03:40:23;;;;;;;28.50;19.75;;;;;;;;;;5082495;28;20082;-80
2022/02/07 03:42:50;;;;;;;27.98;20.17;;;;;;;;;;5084325;28;20429;-81
2022/02/07 03:45:19;;;;;;;29.17;19.30;;;;;;;;;;5084142;28;20032;-80
2022/02/07 03:47:46;;;;;;;28.30;20.13;;;;;;;;;;5103300;28;20023;-79
2022/02/07 03:50:12;;;;;;;38.45;23.83;;;;;;;;;;5100516;28;20036;-78
2022/02/07 03:52:39;;;;;;;55.67;32.83;;;;;;;;;;5101547;28;20024;-82
2022/02/07 03:55:08;;;;;;;44.03;29.30;;;;;;;;;;5101710;28;20024;-80
2022/02/07 03:57:37;;;;;;;39.40;26.90;;;;;;;;;;5103663;28;20333;-80
2022/02/07 04:00:07;;;;;;;42.78;28.00;;;;;;;;;;5105898;28;20031;-78
2022/02/07 04:02:38;;;;;;;44.50;27.65;;;;;;;;;;5112673;28;20042;-81
2022/02/07 04:07:49;;;;;;;36.40;24.98;;;;;;;;;;5112764;28;20080;-77
2022/02/07 04:10:16;;;;;;;35.65;23.27;;;;;;;;;;5112810;28;20062;-77
2022/02/07 04:12:48;;;;;;;38.88;23.90;;;;;;;;;;5112682;28;20030;-83
2022/02/07 04:15:18;;;;;;;41.05;26.38;;;;;;;;;;5094393;28;20023;-80
2022/02/07 04:17:50;;;;;;;58.38;32.45;;;;;;;;;;5112375;28;20032;-80
2022/02/07 04:20:18;;;;;;;43.25;24.90;;;;;;;;;;5112211;28;20040;-79
2022/02/07 04:22:44;;;;;;;46.60;30.08;;;;;;;;;;5115926;28;20065;-80
2022/02/07 04:25:10;;;;;;;45.30;31.30;;;;;;;;;;5117121;28;20038;-78
2022/02/07 04:27:36;;;;;;;37.38;25.23;;;;;;;;;;5116748;28;20239;-80
2022/02/07 04:30:03;;;;;;;42.92;27.95;;;;;;;;;;5098335;28;20023;-79
2022/02/07 04:32:30;;;;;;;34.40;24.38;;;;;;;;;;5116781;28;20367;-78
2022/02/07 04:34:56;;;;;;;30.92;22.33;;;;;;;;;;5116559;28;20041;-81
2022/02/07 04:37:22;;;;;;;34.22;24.10;;;;;;;;;;5116787;28;20024;-80
2022/02/07 04:39:49;;;;;;;32.70;22.52;;;;;;;;;;5116360;28;20023;-80
2022/02/07 04:42:17;;;;;;;30.95;22.95;;;;;;;;;;5116325;28;20126;-82
2022/02/07 04:44:57;;;;;;;39.42;26.80;;;;;;;;;;5116284;28;20431;-80
2022/02/07 05:00:11;;;;;;;32.42;22.90;;;;;;;;;;5115975;28;20076;-82
2022/02/07 05:13:38;;;;;;;44.58;28.70;;;;;;;;;;5116491;28;20039;-82
2022/02/07 05:16:10;;;;;;;66.45;42.30;;;;;;;;;;5115322;28;20047;-80
2022/02/07 05:18:36;;;;;;;65.47;39.35;;;;;;;;;;5116075;28;20031;-79
2022/02/07 05:21:02;;;;;;;42.20;27.92;;;;;;;;;;5115588;28;20030;-80
2022/02/07 05:23:28;;;;;;;53.45;35.63;;;;;;;;;;5115737;28;20032;-78
2022/02/07 05:25:55;;;;;;;44.70;28.35;;;;;;;;;;5115785;28;20029;-79
2022/02/07 05:28:21;;;;;;;53.03;36.55;;;;;;;;;;5115491;28;20443;-80
2022/02/07 05:30:47;;;;;;;38.78;25.13;;;;;;;;;;5115745;28;20032;-77
2022/02/07 05:33:13;;;;;;;37.00;24.73;;;;;;;;;;5095868;28;20030;-79
2022/02/07 05:35:39;;;;;;;30.67;22.23;;;;;;;;;;5097480;28;20020;-78
2022/02/07 05:38:08;;;;;;;29.88;22.17;;;;;;;;;;5115291;28;20024;-76
2022/02/07 05:43:00;;;;;;;41.25;25.42;;;;;;;;;;5115321;28;20031;-81
2022/02/07 05:45:26;;;;;;;87.60;50.38;;;;;;;;;;5115196;28;20024;-80
2022/02/07 05:47:53;;;;;;;65.75;38.10;;;;;;;;;;5115256;28;20390;-79
2022/02/07 05:50:19;;;;;;;62.55;39.13;;;;;;;;;;5114941;28;20058;-78
2022/02/07 05:52:45;;;;;;;160.23;84.97;;;;;;;;;;5115207;28;20027;-77
2022/02/07 05:55:11;;;;;;;53.80;35.50;;;;;;;;;;5114944;28;20019;-81
2022/02/07 05:57:38;;;;;;;44.45;28.92;;;;;;;;;;5114941;28;20035;-77
2022/02/07 06:00:05;;;;;;;36.25;23.33;;;;;;;;;;5115081;28;20088;-80
2022/02/07 06:02:31;;;;;;;37.30;22.83;;;;;;;;;;5114815;28;20111;-76
2022/02/07 06:04:57;;;;;;;46.20;28.77;;;;;;;;;;5096460;28;20367;-77
2022/02/07 06:07:23;;;;;;;32.65;21.23;;;;;;;;;;5114703;28;20059;-80
2022/02/07 06:09:49;;;;;;;27.33;20.42;;;;;;;;;;5114900;28;20107;-79
2022/02/07 06:12:16;;;;;;;27.58;20.83;;;;;;;;;;5114567;28;20030;-77
2022/02/07 06:14:42;;;;;;;31.42;21.45;;;;;;;;;;5114508;28;20103;-80
2022/02/07 06:17:08;;;;;;;39.72;28.27;;;;;;;;;;5114653;28;20055;-82
2022/02/07 06:19:34;;;;;;;36.58;25.85;;;;;;;;;;5114102;28;20055;-77
2022/02/07 06:22:00;;;;;;;34.88;25.35;;;;;;;;;;5114646;28;20227;-79
2022/02/07 06:24:26;;;;;;;38.25;25.92;;;;;;;;;;5099639;28;20049;-78
2022/02/07 06:26:52;;;;;;;29.83;23.08;;;;;;;;;;5094254;28;20479;-77
2022/02/07 06:29:18;;;;;;;41.97;32.70;;;;;;;;;;5093048;28;20028;-77
2022/02/07 06:31:45;;;;;;;103.05;69.78;;;;;;;;;;5096474;28;20032;-79
2022/02/07 06:34:11;;;;;;;107.55;59.30;;;;;;;;;;5093956;28;20035;-79
2022/02/07 06:36:37;;;;;;;116.88;67.18;;;;;;;;;;5093091;28;20024;-79
2022/02/07 06:39:03;;;;;;;87.93;58.15;;;;;;;;;;5095381;28;20027;-80
2022/02/07 06:41:29;;;;;;;67.10;44.83;;;;;;;;;;5113944;28;20040;-79
2022/02/07 06:43:55;;;;;;;63.85;44.67;;;;;;;;;;5095256;28;20474;-77
2022/02/07 06:46:23;;;;;;;58.10;39.83;;;;;;;;;;5093936;28;20105;-77
2022/02/07 06:48:49;;;;;;;56.38;38.03;;;;;;;;;;5094287;28;20034;-80
2022/02/07 06:51:15;;;;;;;66.10;43.80;;;;;;;;;;5113026;28;20131;-80
2022/02/07 06:53:41;;;;;;;73.55;48.97;;;;;;;;;;5114220;28;20110;-81
2022/02/07 06:56:07;;;;;;;87.65;60.78;;;;;;;;;;5113591;28;20106;-79
2022/02/07 06:58:42;;;;;;;113.65;76.97;;;;;;;;;;5108325;28;20077;-77
2022/02/07 07:01:09;;;;;;;90.45;61.25;;;;;;;;;;5074938;28;20031;-80
2022/02/07 07:03:37;;;;;;;86.85;59.17;;;;;;;;;;5089070;28;20036;-75
2022/02/07 07:06:03;;;;;;;90.72;61.33;;;;;;;;;;5073629;28;20121;-81
2022/02/07 07:08:35;;;;;;;90.28;61.38;;;;;;;;;;5091983;28;20479;-79
2022/02/07 07:11:01;;;;;;;99.60;65.72;;;;;;;;;;5091776;28;20028;-77
2022/02/07 07:13:38;;;;;;;88.30;60.25;;;;;;;;;;5091875;28;20042;-81
2022/02/07 07:16:25;;;;;;;81.68;55.15;;;;;;;;;;5073034;28;20386;-77
2022/02/07 07:18:50;;;;;;;68.75;43.05;;;;;;;;;;5091161;28;20050;-78
2022/02/07 07:21:17;;;;;;;65.93;45.60;;;;;;;;;;5093427;28;20039;-78
2022/02/07 07:23:44;;;;;;;75.15;50.22;;;;;;;;;;5107072;28;20024;-79
2022/02/07 07:26:10;;;;;;;90.05;58.40;;;;;;;;;;5091002;28;20028;-80
2022/02/07 07:28:39;;;;;;;107.70;75.72;;;;;;;;;;5091220;28;20028;-80
2022/02/07 07:31:08;;;;;;;89.07;65.18;;;;;;;;;;5072643;28;20537;-80
2022/02/07 07:33:36;;;;;;;89.05;64.18;;;;;;;;;;5091341;28;20032;-80
2022/02/07 07:36:02;;;;;;;76.82;53.38;;;;;;;;;;5091120;28;20100;-80
2022/02/07 07:38:28;;;;;;;73.65;53.40;;;;;;;;;;5090898;28;20126;-80
2022/02/07 07:40:54;;;;;;;66.68;49.30;;;;;;;;;;5090671;28;20506;-78
2022/02/07 07:43:21;;;;;;;68.90;46.75;;;;;;;;;;5090653;28;20032;-80
2022/02/07 07:45:50;;;;;;;105.78;71.55;;;;;;;;;;5091154;28;20032;-78
2022/02/07 07:48:22;;;;;;;80.00;55.97;;;;;;;;;;5090303;28;20043;-81
2022/02/07 08:03:50;;;;;;;159.43;103.40;;;;;;;;;;5091039;28;20274;-83
2022/02/07 08:06:27;;;;;;;178.32;116.80;;;;;;;;;;5090509;28;20524;-80
2022/02/07 08:09:18;;;;;;;225.32;149.65;;;;;;;;;;5071662;28;20059;-80
2022/02/07 08:11:46;;;;;;;79.30;55.03;;;;;;;;;;5093926;28;20076;-81
2022/02/07 08:14:12;;;;;;;68.60;50.35;;;;;;;;;;5110846;28;20020;-81
2022/02/07 08:16:38;;;;;;;66.28;47.92;;;;;;;;;;5110119;28;20020;-83
2022/02/07 08:19:08;;;;;;;61.83;45.00;;;;;;;;;;5090442;28;20398;-81
2022/02/07 08:21:35;;;;;;;79.65;53.60;;;;;;;;;;5072685;28;20040;-81
2022/02/07 08:24:01;;;;;;;83.22;55.65;;;;;;;;;;5089310;28;20051;-79
2022/02/07 08:26:28;;;;;;;104.88;70.00;;;;;;;;;;5090653;28;20110;-82
2022/02/07 08:28:54;;;;;;;119.15;82.38;;;;;;;;;;5090473;28;20031;-82
2022/02/07 08:31:20;;;;;;;100.60;64.68;;;;;;;;;;5090451;28;20028;-82
2022/02/07 08:33:47;;;;;;;106.38;74.70;;;;;;;;;;5089975;28;20093;-80
2022/02/07 08:36:15;;;;;;;110.57;76.03;;;;;;;;;;5090664;28;20186;-80
2022/02/07 08:38:42;;;;;;;127.28;88.95;;;;;;;;;;5090055;28;20093;-79
2022/02/07 08:41:08;;;;;;;127.15;89.43;;;;;;;;;;5093315;28;20043;-82
2022/02/07 08:43:34;;;;;;;151.45;107.63;;;;;;;;;;5072494;28;20036;-81
2022/02/07 08:46:00;;;;;;;158.98;110.32;;;;;;;;;;5105287;28;20039;-79
2022/02/07 08:48:27;;;;;;;149.95;106.35;;;;;;;;;;5102080;28;20114;-81
2022/02/07 08:50:55;;;;;;;189.00;133.48;;;;;;;;;;5079683;28;20040;-82
2022/02/07 08:53:23;;;;;;;205.18;143.60;;;;;;;;;;5062750;28;20093;-79
2022/02/07 08:55:52;;;;;;;201.00;147.02;;;;;;;;;;5055016;28;20037;-80
2022/02/07 08:58:22;;;;;;;211.25;147.30;;;;;;;;;;5072773;28;20028;-81
2022/02/07 09:11:42;;;;;;;292.02;217.68;;;;;;;;;;5060870;28;20141;-77
2022/02/07 09:14:11;;;;;;;231.35;168.88;;;;;;;;;;5080197;28;20020;-80
2022/02/07 09:16:39;;;;;;;216.85;159.20;;;;;;;;;;5081711;28;20032;-81
2022/02/07 09:19:05;;;;;;;273.70;178.82;;;;;;;;;;5077735;28;20459;-78
2022/02/07 09:21:32;;;;;;;115.40;87.15;;;;;;;;;;5080044;28;20115;-80
2022/02/07 09:23:58;;;;;;;98.97;74.80;;;;;;;;;;5080848;28;20027;-79
2022/02/07 09:26:25;;;;;;;91.32;66.47;;;;;;;;;;5083886;28;20460;-79
2022/02/07 09:28:51;;;;;;;124.22;89.15;;;;;;;;;;5073050;28;20029;-79
2022/02/07 09:31:18;;;;;;;93.03;69.40;;;;;;;;;;5075700;28;20027;-81
2022/02/07 09:33:45;;;;;;;93.88;71.05;;;;;;;;;;5078185;28;20096;-78
2022/02/07 09:36:14;;;;;;;95.72;71.22;;;;;;;;;;5082867;28;20102;-79
2022/02/07 09:38:41;;;;;;;97.93;73.13;;;;;;;;;;5085807;28;20048;-78
2022/02/07 09:41:08;;;;;;;249.68;155.27;;;;;;;;;;5072806;28;20041;-78
2022/02/07 09:43:41;;;;;;;125.00;86.57;;;;;;;;;;5077199;28;20103;-79
2022/02/07 09:46:11;;;;;;;102.57;76.43;;;;;;;;;;5081343;28;20036;-80
2022/02/07 09:48:39;;;;;;;76.07;53.95;;;;;;;;;;5085565;28;20380;-81
2022/02/07 09:51:09;;;;;;;80.75;61.63;;;;;;;;;;5107892;28;20039;-79
2022/02/07 09:53:35;;;;;;;92.55;70.80;;;;;;;;;;5101952;28;20054;-81
2022/02/07 09:56:02;;;;;;;61.63;48.00;;;;;;;;;;5101505;28;20028;-77
2022/02/07 09:58:35;;;;;;;52.83;40.25;;;;;;;;;;5099629;28;20472;-70
2022/02/07 10:01:04;;;;;;;196.32;125.20;;;;;;;;;;5097858;28;20498;-80
2022/02/07 10:03:43;;;;;;;79.65;57.53;;;;;;;;;;5113679;28;20023;-80
2022/02/07 10:06:30;;;;;;;60.15;44.30;;;;;;;;;;5112802;28;20036;-80
2022/02/07 10:14:33;;;;;;;34.40;25.23;;;;;;;;;;5093181;28;20058;-82
2022/02/07 10:40:11;;;;;;;27.70;21.58;;;;;;;;;;5091881;28;20166;-80
2022/02/07 10:43:08;;;;;;;23.15;18.15;;;;;;;;;;5092508;28;20044;-79
2022/02/07 10:45:53;;;;;;;29.55;21.85;;;;;;;;;;5092057;28;20435;-78
2022/02/07 10:48:39;;;;;;;31.33;23.00;;;;;;;;;;5092188;28;20031;-80
2022/02/07 10:51:09;;;;;;;21.98;17.13;;;;;;;;;;5091691;28;20090;-81
2022/02/07 10:53:39;;;;;;;45.67;29.85;;;;;;;;;;5092102;28;20042;-79
2022/02/07 10:56:05;;;;;;;39.03;27.48;;;;;;;;;;5092034;28;20115;-80
2022/02/07 10:58:32;;;;;;;30.90;22.10;;;;;;;;;;5093474;28;20035;-80
2022/02/07 11:01:08;;;;;;;29.63;19.00;;;;;;;;;;5092055;28;20028;-79
2022/02/07 11:03:41;;;;;;;24.58;17.75;;;;;;;;;;5092959;28;20036;-78
2022/02/07 11:06:10;;;;;;;23.58;15.02;;;;;;;;;;5091540;28;20032;-83
2022/02/07 11:08:47;;;;;;;20.27;14.43;;;;;;;;;;5074639;28;20105;-83
2022/02/07 11:14:06;;;;;;;25.08;15.93;;;;;;;;;;5090451;28;20056;-81
2022/02/07 11:22:14;;;;;;;20.13;14.68;;;;;;;;;;5091435;28;20480;-81
2022/02/07 11:27:38;;;;;;;25.48;16.92;;;;;;;;;;5091526;28;20024;-85
2022/02/07 11:30:10;;;;;;;17.40;12.82;;;;;;;;;;5090984;28;20027;-85
2022/02/07 11:32:47;;;;;;;16.83;13.02;;;;;;;;;;5090293;28;20108;-85
2022/02/07 11:35:15;;;;;;;20.60;15.20;;;;;;;;;;5094344;28;20035;-83
2022/02/07 11:37:42;;;;;;;19.05;13.68;;;;;;;;;;5090727;28;20040;-82
2022/02/07 11:40:27;;;;;;;16.58;12.32;;;;;;;;;;5104625;28;20126;-81
2022/02/07 11:43:05;;;;;;;19.73;13.43;;;;;;;;;;5072823;28;20117;-84
2022/02/07 11:45:47;;;;;;;23.05;18.77;;;;;;;;;;5090610;28;20478;-85
2022/02/07 11:48:14;;;;;;;19.52;16.95;;;;;;;;;;5053565;28;20037;-83
2022/02/07 11:50:43;;;;;;;25.60;17.65;;;;;;;;;;5090658;28;20131;-84
2022/02/07 11:53:11;;;;;;;25.38;19.27;;;;;;;;;;5073168;28;20024;-85
2022/02/07 11:55:54;;;;;;;21.05;16.40;;;;;;;;;;5090931;28;20036;-86
2022/02/07 11:58:26;;;;;;;14.95;11.55;;;;;;;;;;5072640;28;20034;-80
2022/02/07 12:00:57;;;;;;;12.10;10.80;;;;;;;;;;5090052;28;20044;-79
2022/02/07 12:03:25;;;;;;;26.33;19.05;;;;;;;;;;5091539;28;20036;-81
2022/02/07 12:05:52;;;;;;;21.73;16.83;;;;;;;;;;5088423;28;20027;-79
2022/02/07 12:08:20;;;;;;;24.27;18.27;;;;;;;;;;5107946;28;20032;-80
2022/02/07 12:10:48;;;;;;;17.05;14.13;;;;;;;;;;5072750;28;20114;-80
2022/02/07 12:13:32;;;;;;;16.33;13.18;;;;;;;;;;5091105;28;20085;-79
2022/02/07 12:16:04;;;;;;;13.73;11.55;;;;;;;;;;5072500;28;20020;-79
2022/02/07 12:18:30;;;;;;;17.73;12.88;;;;;;;;;;5090286;28;20398;-80
2022/02/07 12:21:12;;;;;;;18.60;13.50;;;;;;;;;;5089888;28;20042;-83
2022/02/07 12:23:39;;;;;;;24.85;20.27;;;;;;;;;;5072003;28;20038;-79
2022/02/07 12:28:57;;;;;;;12.75;10.13;;;;;;;;;;5090379;28;20058;-80
2022/02/07 12:31:24;;;;;;;16.20;11.60;;;;;;;;;;5076220;28;20036;-82
2022/02/07 12:33:57;;;;;;;13.07;10.98;;;;;;;;;;5090621;28;20032;-78
2022/02/07 12:36:27;;;;;;;13.90;11.23;;;;;;;;;;5090940;28;20313;-79
2022/02/07 12:38:54;;;;;;;11.30;9.80;;;;;;;;;;5090379;28;20425;-78
2022/02/07 12:41:23;;;;;;;13.77;11.35;;;;;;;;;;5078085;28;20036;-81
2022/02/07 12:43:51;;;;;;;14.77;11.35;;;;;;;;;;5112235;28;20023;-80
2022/02/07 12:46:21;;;;;;;15.70;12.68;;;;;;;;;;5078289;28;20028;-80
2022/02/07 12:51:21;;;;;;;19.35;13.57;;;;;;;;;;5115635;28;20108;-78
2022/02/07 13:03:19;;;;;;;18.80;13.82;;;;;;;;;;5250668;22;20114;-78
2022/02/07 13:05:48;;;;;;;20.13;15.38;;;;;;;;;;5050901;28;20440;-78
2022/02/07 13:08:16;;;;;;;15.10;12.75;;;;;;;;;;5053906;28;20521;-78
2022/02/07 13:10:42;;;;;;;15.73;11.15;;;;;;;;;;5035848;28;20039;-79
2022/02/07 13:13:27;;;;;;;12.27;10.95;;;;;;;;;;5047464;28;20025;-77
2022/02/07 13:15:53;;;;;;;14.90;11.27;;;;;;;;;;5051521;28;20043;-76
2022/02/07 13:18:21;;;;;;;12.75;11.38;;;;;;;;;;5052750;28;20096;-76
2022/02/07 13:20:48;;;;;;;13.48;11.18;;;;;;;;;;5052536;28;20103;-79
2022/02/07 13:23:15;;;;;;;13.73;11.10;;;;;;;;;;5052972;28;20021;-76
2022/02/07 13:25:51;;;;;;;12.25;10.43;;;;;;;;;;5052254;28;20040;-79
2022/02/07 13:28:20;;;;;;;13.38;9.43;;;;;;;;;;5040597;28;20028;-79
2022/02/07 13:30:47;;;;;;;16.45;9.43;;;;;;;;;;5051513;28;20037;-78
2022/02/07 13:33:14;;;;;;;12.00;8.45;;;;;;;;;;5049920;28;20029;-79
2022/02/07 13:35:43;;;;;;;18.02;9.27;;;;;;;;;;5052823;28;20025;-77
2022/02/07 13:38:10;;;;;;;12.18;8.77;;;;;;;;;;5052306;28;20048;-76
2022/02/07 13:40:42;;;;;;;9.80;8.52;;;;;;;;;;5053162;28;20494;-79
2022/02/07 13:43:27;;;;;;;12.45;8.95;;;;;;;;;;5051701;28;20383;-78
2022/02/07 13:46:03;;;;;;;11.85;8.85;;;;;;;;;;5051037;28;20024;-80
2022/02/07 13:48:30;;;;;;;16.90;10.48;;;;;;;;;;5050661;28;20021;-78
2022/02/07 13:50:58;;;;;;;14.65;10.93;;;;;;;;;;5053091;28;20103;-80
2022/02/07 13:53:25;;;;;;;13.02;10.60;;;;;;;;;;5052538;28;20024;-80
2022/02/07 13:55:52;;;;;;;15.15;11.75;;;;;;;;;;5052457;28;20083;-70
2022/02/07 13:58:20;;;;;;;13.52;11.50;;;;;;;;;;5053009;28;20029;-77
2022/02/07 14:00:49;;;;;;;14.65;12.50;;;;;;;;;;5052818;28;20066;-78
2022/02/07 14:03:34;;;;;;;14.32;11.60;;;;;;;;;;5049332;28;20040;-78
2022/02/07 14:06:18;;;;;;;15.80;11.27;;;;;;;;;;5032738;28;20033;-75
2022/02/07 14:08:49;;;;;;;12.75;10.60;;;;;;;;;;5031816;28;20048;-81
2022/02/07 14:11:20;;;;;;;17.73;11.68;;;;;;;;;;5032559;28;20052;-78
2022/02/07 14:13:46;;;;;;;19.02;12.30;;;;;;;;;;5033105;28;20577;-77
2022/02/07 14:16:14;;;;;;;22.33;17.27;;;;;;;;;;5032366;28;20061;-75
2022/02/07 14:18:45;;;;;;;24.30;16.88;;;;;;;;;;5032485;28;20659;-77
2022/02/07 14:21:12;;;;;;;22.45;16.02;;;;;;;;;;5032456;28;20041;-81
2022/02/07 14:23:39;;;;;;;24.65;16.48;;;;;;;;;;5032354;28;20490;-78
2022/02/07 14:26:11;;;;;;;23.15;16.02;;;;;;;;;;5031963;28;20033;-79
2022/02/07 14:28:37;;;;;;;19.58;15.25;;;;;;;;;;5032916;28;20037;-79
2022/02/07 14:31:04;;;;;;;21.17;14.70;;;;;;;;;;5030966;28;20029;-79
2022/02/07 14:33:30;;;;;;;23.98;16.52;;;;;;;;;;5032198;28;20029;-79
2022/02/07 14:35:56;;;;;;;24.08;16.10;;;;;;;;;;5032625;28;20033;-79
2022/02/07 14:38:23;;;;;;;20.63;15.95;;;;;;;;;;5032265;28;20037;-78
2022/02/07 14:40:49;;;;;;;22.63;16.27;;;;;;;;;;5032529;28;20026;-80
2022/02/07 14:43:22;;;;;;;17.77;14.05;;;;;;;;;;5033473;28;20037;-77
2022/02/07 14:46:23;;;;;;;16.75;14.30;;;;;;;;;;5033563;28;20490;-79
2022/02/07 14:48:41;;;;;;;18.27;14.27;;;;;;;;;;5030018;28;20041;-79
2022/02/07 14:51:08;;;;;;;15.48;12.20;;;;;;;;;;5032504;28;20444;-81
2022/02/07 14:53:35;;;;;;;14.73;11.27;;;;;;;;;;5033395;28;20041;-80
2022/02/07 14:56:01;;;;;;;17.20;11.75;;;;;;;;;;5033818;28;20446;-78
2022/02/07 14:58:27;;;;;;;13.55;11.30;;;;;;;;;;5032997;28;20021;-76
2022/02/07 15:00:54;;;;;;;13.20;11.68;;;;;;;;;;5032827;28;20083;-76
2022/02/07 15:03:21;;;;;;;18.35;13.07;;;;;;;;;;5035666;28;20037;-76
2022/02/07 15:05:50;;;;;;;18.65;13.50;;;;;;;;;;5052650;28;20025;-79
2022/02/07 15:08:17;;;;;;;16.80;13.13;;;;;;;;;;5052236;28;20067;-78
2022/02/07 15:10:43;;;;;;;17.02;12.57;;;;;;;;;;5046345;28;20029;-75
2022/02/07 15:13:09;;;;;;;15.90;11.90;;;;;;;;;;5052227;28;20028;-77
2022/02/07 15:15:38;;;;;;;14.27;10.85;;;;;;;;;;5052763;28;20025;-79
2022/02/07 15:18:07;;;;;;;17.58;11.63;;;;;;;;;;5052598;28;20399;-79
2022/02/07 15:20:37;;;;;;;14.48;10.77;;;;;;;;;;5052934;28;20032;-79
2022/02/07 15:23:04;;;;;;;14.38;11.15;;;;;;;;;;5052447;28;20093;-79
2022/02/07 15:25:31;;;;;;;17.83;11.07;;;;;;;;;;5052282;28;20471;-75
2022/02/07 15:27:59;;;;;;;16.63;10.60;;;;;;;;;;5052297;28;20087;-79
2022/02/07 15:30:29;;;;;;;15.93;11.35;;;;;;;;;;5052326;28;20871;-74
2022/02/07 15:32:58;;;;;;;13.30;10.25;;;;;;;;;;5052177;28;20040;-78
2022/02/07 15:35:24;;;;;;;13.95;11.13;;;;;;;;;;5052072;28;20472;-76
2022/02/07 15:37:50;;;;;;;16.35;12.80;;;;;;;;;;5049941;28;20052;-78
2022/02/07 15:40:17;;;;;;;28.33;20.30;;;;;;;;;;5051128;28;20119;-76
2022/02/07 15:42:43;;;;;;;26.48;19.80;;;;;;;;;;5033777;28;20033;-79
2022/02/07 15:45:10;;;;;;;23.85;17.92;;;;;;;;;;5051762;28;20086;-78
2022/02/07 15:47:40;;;;;;;20.75;14.57;;;;;;;;;;5051700;28;20029;-81
2022/02/07 15:50:08;;;;;;;18.52;15.27;;;;;;;;;;5051518;28;20040;-75
2022/02/07 15:52:35;;;;;;;22.33;18.05;;;;;;;;;;5033215;28;20071;-79
2022/02/07 15:55:01;;;;;;;21.80;18.55;;;;;;;;;;5051728;28;20037;-77
2022/02/07 15:57:27;;;;;;;22.63;18.75;;;;;;;;;;5051222;28;20140;-79
2022/02/07 15:59:53;;;;;;;44.33;31.80;;;;;;;;;;5051522;28;20029;-78
2022/02/07 16:02:20;;;;;;;45.88;35.67;;;;;;;;;;5051188;28;20041;-78
2022/02/07 16:04:46;;;;;;;67.20;46.33;;;;;;;;;;5051087;28;20048;-77
2022/02/07 16:07:12;;;;;;;29.27;19.58;;;;;;;;;;5051389;28;20029;-77
2022/02/07 16:09:39;;;;;;;12.18;9.25;;;;;;;;;;5050615;28;20826;-76
2022/02/07 16:12:11;;;;;;;15.57;7.65;;;;;;;;;;5051987;28;20422;-74
2022/02/07 16:14:38;;;;;;;7.93;4.43;;;;;;;;;;5052155;28;20074;-81
2022/02/07 16:17:04;;;;;;;7.70;3.05;;;;;;;;;;5050065;28;20441;-83
2022/02/07 16:19:30;;;;;;;8.80;4.35;;;;;;;;;;5034253;28;20029;-79
2022/02/07 16:21:57;;;;;;;7.70;4.20;;;;;;;;;;5051692;28;20387;-78
2022/02/07 16:24:24;;;;;;;7.60;4.70;;;;;;;;;;5051264;28;20040;-79
2022/02/07 16:26:50;;;;;;;3.97;2.55;;;;;;;;;;5051578;28;20112;-80
2022/02/07 16:29:17;;;;;;;3.63;1.92;;;;;;;;;;5051739;28;20142;-78
2022/02/07 16:31:43;;;;;;;2.42;1.10;;;;;;;;;;5051375;28;20032;-82
2022/02/07 16:34:15;;;;;;;1.85;0.85;;;;;;;;;;5051170;28;20028;-82
2022/02/07 16:36:41;;;;;;;1.30;0.68;;;;;;;;;;5051102;28;20040;-76
2022/02/07 16:39:07;;;;;;;2.63;1.67;;;;;;;;;;5051173;28;20036;-82
2022/02/07 16:41:35;;;;;;;2.13;1.15;;;;;;;;;;5050992;28;20479;-78
2022/02/07 16:44:03;;;;;;;3.25;1.50;;;;;;;;;;5051135;28;20553;-80
2022/02/07 16:46:37;;;;;;;2.08;1.02;;;;;;;;;;5051209;28;20056;-79
2022/02/07 16:49:03;;;;;;;;;;;;;;;;;;5052381;28;20082;-84
2022/02/07 16:51:33;;;;;;;1.80;1.13;;;;;;;;;;5050407;28;19975;-78
2022/02/07 16:54:00;;;;;;;1.67;1.13;;;;;;;;;;5051079;28;20044;-79
2022/02/07 16:56:26;;;;;;;2.38;1.10;;;;;;;;;;5051057;28;20060;-79
2022/02/07 16:58:52;;;;;;;2.60;1.48;;;;;;;;;;5050939;28;20489;-77
2022/02/07 17:01:18;;;;;;;2.38;1.05;;;;;;;;;;5032855;28;20083;-79
2022/02/07 17:03:44;;;;;;;2.20;1.15;;;;;;;;;;5050304;28;20056;-78
2022/02/07 17:06:10;;;;;;;3.33;1.63;;;;;;;;;;5051238;28;20029;-80
2022/02/07 17:08:37;;;;;;;2.60;1.65;;;;;;;;;;5032694;28;20029;-78
2022/02/07 17:11:05;;;;;;;3.20;1.75;;;;;;;;;;5050819;28;20025;-78
2022/02/07 17:13:32;;;;;;;3.30;1.77;;;;;;;;;;5050938;28;20506;-79
2022/02/07 17:15:58;;;;;;;3.00;1.90;;;;;;;;;;5050332;28;20040;-80
2022/02/07 17:18:26;;;;;;;2.60;1.60;;;;;;;;;;5051751;28;20033;-78
2022/02/07 17:20:52;;;;;;;2.97;1.63;;;;;;;;;;5051222;28;20120;-78
2022/02/07 17:23:19;;;;;;;3.95;1.90;;;;;;;;;;5051582;28;20112;-79
2022/02/07 17:25:46;;;;;;;2.75;1.42;;;;;;;;;;5051648;28;20078;-77
2022/02/07 17:28:12;;;;;;;2.70;1.65;;;;;;;;;;5051884;28;20076;-83
2022/02/07 17:30:39;;;;;;;2.05;1.30;;;;;;;;;;5054391;28;20123;-78
2022/02/07 17:33:06;;;;;;;4.05;2.50;;;;;;;;;;5055366;28;20506;-79
2022/02/07 17:35:32;;;;;;;3.28;2.22;;;;;;;;;;5055507;28;20067;-80
2022/02/07 17:37:59;;;;;;;3.30;1.45;;;;;;;;;;5054563;28;20112;-78
2022/02/07 17:40:25;;;;;;;3.30;1.70;;;;;;;;;;5055426;28;20027;-80
2022/02/07 17:42:51;;;;;;;2.53;1.67;;;;;;;;;;5055284;28;20547;-80
2022/02/07 17:45:20;;;;;;;4.75;2.72;;;;;;;;;;5054888;28;20479;-79